Darstellungsparameter: Aktuell verwendete Einstellungen:
Skalierung der Graphiken ... ?
xyx+y,   Skalierungsfaktor:      Skalierung: Modus: x, Faktor: 1
Darstellungszeitraum ... ?
Vom - - bis: - -   Zeitraum: 08.11.2021 - 10.11.2021
Min/Max/Avg-Anzeige ... ?
Zeige MMA aktuell
Zeige MMA Monat
Zeige MMA alles
Zeige --A aktuell
Zeige --A Monat
Zeige --A alles
Keine MMA-Anzeige
MMA:
Average (ber die Originaldaten)
MMA-Basis: 08.11.2021 - 10.11.2021
Quicknavigation für Darstellung... ?
Tage:      1T, 2T, 3T, 5T -1T -2T -3T -5T +1T +2T +3T +5T
Wochen: 1W, 2W, 3W -1W -2W -3W +1W +2W +3W
Monate: 1M, 3M, 6M -1M -3M -6M +1M +3M +6M
Jahre:    1J, 3J, 5J, 10J -1J -3J -5J -10J +1J +3J +5J +10J
Nutze für die Darstellung ... ?
Originaldaten oder Mittelwerte auf ...
Stundenbasis Tagesbasis Wochenbasis
Monatsbasis Jahresbasis      Datenbasis: Original-Daten
Darstellen als:
Statistik (Auto) Statistik J:M      Darstellung:
Zur Graphik,    zurück zur Übersicht aller Sensoren.
 
Tabellarische Datenbersicht: ?
 
Sensor: Nr:Datum:Temp:Abs-Feuchte:Windchill:Wind:
Aussen-T/F 1 08-11-2021 00:00:00 7.1 C 7.25 g/m*3 7.1 C 4.8 km/h
2 08-11-2021 00:05:00 7.2 C 7.3 g/m*3 5.69 C 8.1 km/h
3 08-11-2021 00:10:00 7.2 C 7.3 g/m*3 7.2 C 3.2 km/h
4 08-11-2021 00:15:00 7.2 C 7.3 g/m*3 7.2 C 3.2 km/h
5 08-11-2021 00:20:00 7.2 C 7.3 g/m*3 7.2 C 4.8 km/h
6 08-11-2021 00:25:00 7.1 C 7.25 g/m*3 7.1 C 1.6 km/h
7 08-11-2021 00:30:00 7.1 C 7.25 g/m*3 7.1 C 1.6 km/h
8 08-11-2021 00:35:00 7 C 7.21 g/m*3 7 C 1.6 km/h
9 08-11-2021 00:40:00 6.9 C 7.16 g/m*3 6.9 C 1.6 km/h
10 08-11-2021 00:45:00 6.9 C 7.16 g/m*3 6.9 C 1.6 km/h
11 08-11-2021 00:50:00 6.8 C 7.11 g/m*3 6.8 C 3.2 km/h
12 08-11-2021 00:55:00 6.8 C 7.11 g/m*3 5.67 C 6.4 km/h
13 08-11-2021 01:00:00 6.7 C 7.07 g/m*3 6.7 C 1.6 km/h
14 08-11-2021 01:05:00 6.6 C 7.02 g/m*3 6.6 C 1.6 km/h
15 08-11-2021 01:10:00 6.6 C 7.02 g/m*3 6.6 C 3.2 km/h
16 08-11-2021 01:15:00 6.6 C 7.02 g/m*3 6.6 C 3.2 km/h
17 08-11-2021 01:20:00 6.6 C 7.1 g/m*3 6.6 C 1.6 km/h
18 08-11-2021 01:25:00 6.6 C 7.1 g/m*3 6.6 C 1.6 km/h
19 08-11-2021 01:30:00 6.5 C 7.05 g/m*3 6.5 C 0 km/h
20 08-11-2021 01:35:00 6.5 C 7.05 g/m*3 6.5 C 1.6 km/h
21 08-11-2021 01:40:00 6.6 C 7.1 g/m*3 6.6 C 1.6 km/h
22 08-11-2021 01:45:00 6.6 C 7.1 g/m*3 6.6 C 0 km/h
23 08-11-2021 01:50:00 6.6 C 7.1 g/m*3 6.6 C 0 km/h
24 08-11-2021 01:55:00 6.5 C 7.05 g/m*3 6.5 C 0 km/h
25 08-11-2021 02:00:00 6.5 C 7.05 g/m*3 6.5 C 0 km/h
Sensor: Nr:Datum:Temp:Abs-Feuchte:Windchill:Wind:
Aussen-T/F 26 08-11-2021 02:05:00 6.5 C 7.05 g/m*3 6.5 C 0 km/h
27 08-11-2021 02:10:00 6.5 C 7.05 g/m*3 6.5 C 0 km/h
28 08-11-2021 02:15:00 6.5 C 7.05 g/m*3 6.5 C 1.6 km/h
29 08-11-2021 02:20:00 6.5 C 7.05 g/m*3 6.5 C 0 km/h
30 08-11-2021 02:25:00 6.5 C 7.05 g/m*3 6.5 C 0 km/h
31 08-11-2021 02:30:00 6.6 C 7.1 g/m*3 6.6 C 0 km/h
32 08-11-2021 02:35:00 6.5 C 7.12 g/m*3 6.5 C 0 km/h
33 08-11-2021 02:40:00 6.5 C 7.12 g/m*3 6.5 C 0 km/h
34 08-11-2021 02:45:00 6.5 C 7.12 g/m*3 6.5 C 1.6 km/h
35 08-11-2021 02:50:00 6.4 C 7 g/m*3 6.4 C 1.6 km/h
36 08-11-2021 02:55:00 6.4 C 7 g/m*3 6.4 C 1.6 km/h
37 08-11-2021 03:00:00 6.4 C 7 g/m*3 6.4 C 1.6 km/h
38 08-11-2021 03:05:00 6.3 C 6.96 g/m*3 6.3 C 1.6 km/h
39 08-11-2021 03:10:00 6.3 C 7.03 g/m*3 6.3 C 0 km/h
40 08-11-2021 03:15:00 6.3 C 6.96 g/m*3 6.3 C 0 km/h
41 08-11-2021 03:20:00 6.2 C 6.91 g/m*3 6.2 C 0 km/h
42 08-11-2021 03:25:00 6.2 C 6.99 g/m*3 6.2 C 0 km/h
43 08-11-2021 03:30:00 6.1 C 6.87 g/m*3 6.1 C 4.8 km/h
44 08-11-2021 03:35:00 6.1 C 6.94 g/m*3 6.1 C 0 km/h
45 08-11-2021 03:40:00 6.2 C 6.99 g/m*3 6.2 C 3.2 km/h
46 08-11-2021 03:45:00 6.1 C 6.94 g/m*3 6.1 C 1.6 km/h
47 08-11-2021 03:50:00 6.1 C 6.94 g/m*3 6.1 C 3.2 km/h
48 08-11-2021 03:55:00 6 C 6.9 g/m*3 6 C 1.6 km/h
49 08-11-2021 04:00:00 6 C 6.9 g/m*3 6 C 1.6 km/h
50 08-11-2021 04:05:00 5.9 C 6.85 g/m*3 5.9 C 1.6 km/h
Sensor: Nr:Datum:Temp:Abs-Feuchte:Windchill:Wind:
Aussen-T/F 51 08-11-2021 04:10:00 5.9 C 6.85 g/m*3 5.9 C 0 km/h
52 08-11-2021 04:15:00 5.9 C 6.85 g/m*3 5.9 C 0 km/h
53 08-11-2021 04:20:00 5.9 C 6.85 g/m*3 5.9 C 1.6 km/h
54 08-11-2021 04:25:00 5.9 C 6.85 g/m*3 5.9 C 0 km/h
55 08-11-2021 04:30:00 6 C 6.9 g/m*3 6 C 0 km/h
56 08-11-2021 04:35:00 6 C 6.9 g/m*3 6 C 4.8 km/h
57 08-11-2021 04:40:00 6.1 C 6.94 g/m*3 6.1 C 1.6 km/h
58 08-11-2021 04:45:00 6.1 C 6.94 g/m*3 6.1 C 0 km/h
59 08-11-2021 04:50:00 6.1 C 6.94 g/m*3 6.1 C 3.2 km/h
60 08-11-2021 04:55:00 6 C 6.9 g/m*3 6 C 1.6 km/h
61 08-11-2021 05:00:00 6 C 6.9 g/m*3 6 C 4.8 km/h
62 08-11-2021 05:05:00 6 C 6.9 g/m*3 6 C 0 km/h
63 08-11-2021 05:10:00 6 C 6.9 g/m*3 6 C 4.8 km/h
64 08-11-2021 05:15:00 6 C 6.9 g/m*3 6 C 3.2 km/h
65 08-11-2021 05:20:00 6.1 C 6.94 g/m*3 6.1 C 3.2 km/h
66 08-11-2021 05:25:00 6.1 C 7.01 g/m*3 6.1 C 4.8 km/h
67 08-11-2021 05:30:00 6.1 C 7.01 g/m*3 4.86 C 6.4 km/h
68 08-11-2021 05:35:00 6.1 C 7.01 g/m*3 6.1 C 3.2 km/h
69 08-11-2021 05:40:00 6.1 C 7.01 g/m*3 6.1 C 4.8 km/h
70 08-11-2021 05:45:00 6.1 C 6.94 g/m*3 6.1 C 1.6 km/h
71 08-11-2021 05:50:00 6.1 C 6.94 g/m*3 6.1 C 3.2 km/h
72 08-11-2021 05:55:00 6.2 C 6.99 g/m*3 6.2 C 3.2 km/h
73 08-11-2021 06:00:00 6.2 C 7.06 g/m*3 4.98 C 6.4 km/h
74 08-11-2021 06:05:00 6.2 C 6.99 g/m*3 6.2 C 4.8 km/h
75 08-11-2021 06:10:00 6.2 C 6.99 g/m*3 6.2 C 3.2 km/h
Sensor: Nr:Datum:Temp:Abs-Feuchte:Windchill:Wind:
Aussen-T/F 76 08-11-2021 06:15:00 6.2 C 6.99 g/m*3 6.2 C 4.8 km/h
77 08-11-2021 06:20:00 6.2 C 6.99 g/m*3 6.2 C 4.8 km/h
78 08-11-2021 06:25:00 6.2 C 6.99 g/m*3 4.98 C 6.4 km/h
79 08-11-2021 06:30:00 6.1 C 6.94 g/m*3 6.1 C 1.6 km/h
80 08-11-2021 06:35:00 6.1 C 6.94 g/m*3 4.86 C 6.4 km/h
81 08-11-2021 06:40:00 6.1 C 6.94 g/m*3 6.1 C 3.2 km/h
82 08-11-2021 06:45:00 6.1 C 6.94 g/m*3 6.1 C 3.2 km/h
83 08-11-2021 06:50:00 6.1 C 6.94 g/m*3 6.1 C 4.8 km/h
84 08-11-2021 06:55:00 6.1 C 6.94 g/m*3 6.1 C 4.8 km/h
85 08-11-2021 07:00:00 6.1 C 6.94 g/m*3 6.1 C 1.6 km/h
86 08-11-2021 07:05:00 6.1 C 6.94 g/m*3 6.1 C 3.2 km/h
87 08-11-2021 07:10:00 6.1 C 6.94 g/m*3 6.1 C 3.2 km/h
88 08-11-2021 07:15:00 6.1 C 6.94 g/m*3 6.1 C 1.6 km/h
89 08-11-2021 07:20:00 6.1 C 6.94 g/m*3 6.1 C 1.6 km/h
90 08-11-2021 07:25:00 6.1 C 6.94 g/m*3 6.1 C 0 km/h
91 08-11-2021 07:30:00 6.1 C 6.94 g/m*3 6.1 C 3.2 km/h
92 08-11-2021 07:35:00 6.1 C 6.94 g/m*3 6.1 C 4.8 km/h
93 08-11-2021 07:40:00 6.2 C 6.99 g/m*3 4.98 C 6.4 km/h
94 08-11-2021 07:45:00 6.2 C 6.99 g/m*3 4.98 C 6.4 km/h
95 08-11-2021 07:50:00 6.2 C 6.99 g/m*3 6.2 C 4.8 km/h
96 08-11-2021 07:55:00 6.2 C 6.99 g/m*3 6.2 C 4.8 km/h
97 08-11-2021 08:00:00 6.2 C 6.99 g/m*3 4.98 C 6.4 km/h
98 08-11-2021 08:05:00 6.2 C 6.99 g/m*3 6.2 C 4.8 km/h
99 08-11-2021 08:10:00 6.2 C 6.99 g/m*3 6.2 C 3.2 km/h
100 08-11-2021 08:15:00 6.2 C 6.99 g/m*3 6.2 C 4.8 km/h
Sensor: Nr:Datum:Temp:Abs-Feuchte:Windchill:Wind:
Aussen-T/F 101 08-11-2021 08:20:00 6.2 C 6.99 g/m*3 4.98 C 6.4 km/h
102 08-11-2021 08:25:00 6.3 C 7.03 g/m*3 6.3 C 3.2 km/h
103 08-11-2021 08:30:00 6.3 C 7.03 g/m*3 5.1 C 6.4 km/h
104 08-11-2021 08:35:00 6.3 C 7.03 g/m*3 6.3 C 4.8 km/h
105 08-11-2021 08:40:00 6.4 C 7.08 g/m*3 4.75 C 8.1 km/h
106 08-11-2021 08:45:00 6.4 C 7.08 g/m*3 5.21 C 6.4 km/h
107 08-11-2021 08:50:00 6.4 C 7.08 g/m*3 6.4 C 4.8 km/h
108 08-11-2021 08:55:00 6.4 C 7.08 g/m*3 5.21 C 6.4 km/h
109 08-11-2021 09:00:00 6.4 C 7.08 g/m*3 6.4 C 1.6 km/h
110 08-11-2021 09:05:00 6.4 C 7.08 g/m*3 6.4 C 1.6 km/h
111 08-11-2021 09:10:00 6.4 C 7.08 g/m*3 6.4 C 1.6 km/h
112 08-11-2021 09:15:00 6.4 C 7.08 g/m*3 6.4 C 3.2 km/h
113 08-11-2021 09:20:00 6.3 C 7.03 g/m*3 6.3 C 1.6 km/h
114 08-11-2021 09:25:00 6.4 C 7.08 g/m*3 6.4 C 3.2 km/h
115 08-11-2021 09:30:00 6.6 C 7.17 g/m*3 6.6 C 4.8 km/h
116 08-11-2021 09:35:00 6.7 C 7.22 g/m*3 6.7 C 4.8 km/h
117 08-11-2021 09:40:00 6.7 C 7.22 g/m*3 6.7 C 4.8 km/h
118 08-11-2021 09:45:00 6.8 C 7.27 g/m*3 6.8 C 4.8 km/h
119 08-11-2021 09:50:00 6.8 C 7.27 g/m*3 6.8 C 4.8 km/h
120 08-11-2021 09:55:00 6.9 C 7.31 g/m*3 6.9 C 4.8 km/h
121 08-11-2021 10:00:00 6.9 C 7.31 g/m*3 6.9 C 1.6 km/h
122 08-11-2021 10:05:00 7 C 7.36 g/m*3 7 C 3.2 km/h
123 08-11-2021 10:10:00 7.1 C 7.41 g/m*3 7.1 C 1.6 km/h
124 08-11-2021 10:15:00 7.1 C 7.41 g/m*3 7.1 C 3.2 km/h
125 08-11-2021 10:20:00 7.2 C 7.46 g/m*3 7.2 C 0 km/h
Sensor: Nr:Datum:Temp:Abs-Feuchte:Windchill:Wind:
Aussen-T/F 126 08-11-2021 10:25:00 7.3 C 7.51 g/m*3 7.3 C 0 km/h
127 08-11-2021 10:30:00 7.3 C 7.51 g/m*3 7.3 C 3.2 km/h
128 08-11-2021 10:35:00 7.3 C 7.43 g/m*3 7.3 C 3.2 km/h
129 08-11-2021 10:40:00 7.3 C 7.43 g/m*3 7.3 C 1.6 km/h
130 08-11-2021 10:45:00 7.4 C 7.48 g/m*3 6.37 C 6.4 km/h
131 08-11-2021 10:50:00 7.6 C 7.57 g/m*3 7.6 C 4.8 km/h
132 08-11-2021 10:55:00 7.7 C 7.62 g/m*3 7.7 C 3.2 km/h
133 08-11-2021 11:00:00 7.9 C 7.72 g/m*3 7.9 C 1.6 km/h
134 08-11-2021 11:05:00 8.1 C 7.82 g/m*3 8.1 C 3.2 km/h
135 08-11-2021 11:10:00 8.2 C 7.79 g/m*3 8.2 C 3.2 km/h
136 08-11-2021 11:15:00 8.4 C 7.89 g/m*3 8.4 C 3.2 km/h
137 08-11-2021 11:20:00 8.5 C 7.85 g/m*3 8.5 C 1.6 km/h
138 08-11-2021 11:25:00 8.7 C 7.96 g/m*3 8.7 C 0 km/h
139 08-11-2021 11:30:00 8.7 C 7.87 g/m*3 8.7 C 1.6 km/h
140 08-11-2021 11:35:00 8.8 C 7.92 g/m*3 8.8 C 4.8 km/h
141 08-11-2021 11:40:00 8.9 C 7.97 g/m*3 8.9 C 1.6 km/h
142 08-11-2021 11:45:00 9.1 C 7.99 g/m*3 9.1 C 3.2 km/h
143 08-11-2021 11:50:00 9.2 C 8.04 g/m*3 8.45 C 6.4 km/h
144 08-11-2021 11:55:00 9.3 C 8 g/m*3 9.3 C 3.2 km/h
145 08-11-2021 12:00:00 9.4 C 8.05 g/m*3 9.4 C 3.2 km/h
146 08-11-2021 12:05:00 9.6 C 8.15 g/m*3 9.6 C 1.6 km/h
147 08-11-2021 12:10:00 9.7 C 8.11 g/m*3 9.7 C 1.6 km/h
148 08-11-2021 12:15:00 9.7 C 8.11 g/m*3 9.7 C 3.2 km/h
149 08-11-2021 12:20:00 9.8 C 8.07 g/m*3 9.8 C 1.6 km/h
150 08-11-2021 12:25:00 9.9 C 8.12 g/m*3 9.9 C 1.6 km/h
Sensor: Nr:Datum:Temp:Abs-Feuchte:Windchill:Wind:
Aussen-T/F 151 08-11-2021 12:30:00 9.9 C 8.12 g/m*3 9.9 C 1.6 km/h
152 08-11-2021 12:35:00 10 C 8.17 g/m*3 10 C 4.8 km/h
153 08-11-2021 12:40:00 10.1 C 8.13 g/m*3 10.1 C 3.2 km/h
154 08-11-2021 12:45:00 10.1 C 8.13 g/m*3 10.1 C 3.2 km/h
155 08-11-2021 12:50:00 10.1 C 8.13 g/m*3 10.1 C 1.6 km/h
156 08-11-2021 12:55:00 10.1 C 8.13 g/m*3 10.1 C 1.6 km/h
157 08-11-2021 13:00:00 10.1 C 8.13 g/m*3 10.1 C 3.2 km/h
158 08-11-2021 13:05:00 10.1 C 8.13 g/m*3 10.1 C 0 km/h
159 08-11-2021 13:10:00 10.1 C 8.13 g/m*3 10.1 C 4.8 km/h
160 08-11-2021 13:15:00 10.2 C 8.18 g/m*3 10.2 C 3.2 km/h
161 08-11-2021 13:20:00 10.3 C 8.14 g/m*3 10.3 C 0 km/h
162 08-11-2021 13:25:00 10.4 C 8.29 g/m*3 10.4 C 0 km/h
163 08-11-2021 13:30:00 10.6 C 8.3 g/m*3 10.6 C 0 km/h
164 08-11-2021 13:35:00 10.7 C 8.25 g/m*3 10.7 C 0 km/h
165 08-11-2021 13:40:00 10.7 C 8.15 g/m*3 10.7 C 4.8 km/h
166 08-11-2021 13:45:00 10.8 C 8.2 g/m*3 10.8 C 4.8 km/h
167 08-11-2021 13:50:00 10.8 C 8.2 g/m*3 10.8 C 4.8 km/h
168 08-11-2021 13:55:00 10.8 C 8.2 g/m*3 10.8 C 4.8 km/h
169 08-11-2021 14:00:00 10.8 C 8.2 g/m*3 10.8 C 4.8 km/h
170 08-11-2021 14:05:00 10.8 C 8.3 g/m*3 10.8 C 3.2 km/h
171 08-11-2021 14:10:00 10.9 C 8.16 g/m*3 10.9 C 1.6 km/h
172 08-11-2021 14:15:00 10.9 C 8.26 g/m*3 10.9 C 3.2 km/h
173 08-11-2021 14:20:00 10.9 C 8.16 g/m*3 10.9 C 1.6 km/h
174 08-11-2021 14:25:00 10.9 C 8.16 g/m*3 10.9 C 4.8 km/h
175 08-11-2021 14:30:00 10.9 C 8.16 g/m*3 10.9 C 3.2 km/h
Sensor: Nr:Datum:Temp:Abs-Feuchte:Windchill:Wind:
Aussen-T/F 176 08-11-2021 14:35:00 10.8 C 8.2 g/m*3 10.8 C 1.6 km/h
177 08-11-2021 14:40:00 10.8 C 8.2 g/m*3 10.29 C 6.4 km/h
178 08-11-2021 14:45:00 10.7 C 8.15 g/m*3 10.18 C 6.4 km/h
179 08-11-2021 14:50:00 10.7 C 8.15 g/m*3 10.7 C 4.8 km/h
180 08-11-2021 14:55:00 10.6 C 8.2 g/m*3 10.6 C 4.8 km/h
181 08-11-2021 15:00:00 10.5 C 8.15 g/m*3 10.5 C 3.2 km/h
182 08-11-2021 15:05:00 10.5 C 8.15 g/m*3 10.5 C 3.2 km/h
183 08-11-2021 15:10:00 10.4 C 8.1 g/m*3 10.4 C 0 km/h
184 08-11-2021 15:15:00 10.4 C 8.19 g/m*3 10.4 C 0 km/h
185 08-11-2021 15:20:00 10.4 C 8.19 g/m*3 10.4 C 0 km/h
186 08-11-2021 15:25:00 10.4 C 8.19 g/m*3 10.4 C 0 km/h
187 08-11-2021 15:30:00 10.4 C 8.19 g/m*3 10.4 C 0 km/h
188 08-11-2021 15:35:00 10.4 C 8.19 g/m*3 10.4 C 0 km/h
189 08-11-2021 15:40:00 10.4 C 8.19 g/m*3 10.4 C 0 km/h
190 08-11-2021 15:45:00 10.4 C 8.29 g/m*3 10.4 C 0 km/h
191 08-11-2021 15:50:00 10.4 C 8.29 g/m*3 10.4 C 0 km/h
192 08-11-2021 15:55:00 10.4 C 8.29 g/m*3 10.4 C 0 km/h
193 08-11-2021 16:00:00 10.3 C 8.24 g/m*3 10.3 C 0 km/h
194 08-11-2021 16:05:00 10.3 C 8.33 g/m*3 10.3 C 0 km/h
195 08-11-2021 16:10:00 10.2 C 8.28 g/m*3 10.2 C 0 km/h
196 08-11-2021 16:15:00 10 C 8.17 g/m*3 10 C 0 km/h
197 08-11-2021 16:20:00 9.7 C 7.93 g/m*3 9.7 C 0 km/h
198 08-11-2021 16:25:00 9.4 C 7.78 g/m*3 9.4 C 0 km/h
199 08-11-2021 16:30:00 9.1 C 7.72 g/m*3 9.1 C 0 km/h
200 08-11-2021 16:35:00 8.8 C 7.57 g/m*3 8.8 C 1.6 km/h
Sensor: Nr:Datum:Temp:Abs-Feuchte:Windchill:Wind:
Aussen-T/F 201 08-11-2021 16:40:00 8.7 C 7.61 g/m*3 8.7 C 0 km/h
202 08-11-2021 16:45:00 8.5 C 7.51 g/m*3 8.5 C 0 km/h
203 08-11-2021 16:50:00 8.3 C 7.42 g/m*3 8.3 C 0 km/h
204 08-11-2021 16:55:00 8 C 7.28 g/m*3 8 C 0 km/h
205 08-11-2021 17:00:00 7.8 C 7.18 g/m*3 7.8 C 1.6 km/h
206 08-11-2021 17:05:00 7.5 C 7.12 g/m*3 7.5 C 1.6 km/h
207 08-11-2021 17:10:00 7.3 C 7.11 g/m*3 7.3 C 1.6 km/h
208 08-11-2021 17:15:00 7.3 C 7.11 g/m*3 7.3 C 3.2 km/h
209 08-11-2021 17:20:00 7.2 C 7.14 g/m*3 7.2 C 1.6 km/h
210 08-11-2021 17:25:00 7.1 C 7.1 g/m*3 7.1 C 1.6 km/h
211 08-11-2021 17:30:00 7.1 C 7.1 g/m*3 7.1 C 0 km/h
212 08-11-2021 17:35:00 6.9 C 7.01 g/m*3 6.9 C 0 km/h
213 08-11-2021 17:40:00 6.8 C 7.04 g/m*3 6.8 C 0 km/h
214 08-11-2021 17:45:00 6.7 C 6.99 g/m*3 6.7 C 0 km/h
215 08-11-2021 17:50:00 6.7 C 6.99 g/m*3 6.7 C 0 km/h
216 08-11-2021 17:55:00 6.6 C 6.95 g/m*3 6.6 C 0 km/h
217 08-11-2021 18:00:00 6.6 C 6.95 g/m*3 6.6 C 0 km/h
218 08-11-2021 18:05:00 6.7 C 7.07 g/m*3 6.7 C 0 km/h
219 08-11-2021 18:10:00 6.7 C 7.07 g/m*3 6.7 C 0 km/h
220 08-11-2021 18:15:00 6.8 C 7.11 g/m*3 6.8 C 0 km/h
221 08-11-2021 18:20:00 6.9 C 7.24 g/m*3 6.9 C 0 km/h
222 08-11-2021 18:25:00 7 C 7.28 g/m*3 7 C 0 km/h
223 08-11-2021 18:30:00 7 C 7.28 g/m*3 7 C 0 km/h
224 08-11-2021 18:35:00 7.1 C 7.33 g/m*3 7.1 C 0 km/h
225 08-11-2021 18:40:00 7 C 7.28 g/m*3 7 C 0 km/h
Sensor: Nr:Datum:Temp:Abs-Feuchte:Windchill:Wind:
Aussen-T/F 226 08-11-2021 18:45:00 7 C 7.28 g/m*3 7 C 0 km/h
227 08-11-2021 18:50:00 6.9 C 7.24 g/m*3 6.9 C 0 km/h
228 08-11-2021 18:55:00 6.8 C 7.19 g/m*3 6.8 C 0 km/h
229 08-11-2021 19:00:00 6.8 C 7.19 g/m*3 6.8 C 0 km/h
230 08-11-2021 19:05:00 6.8 C 7.19 g/m*3 6.8 C 0 km/h
231 08-11-2021 19:10:00 6.8 C 7.19 g/m*3 6.8 C 0 km/h
232 08-11-2021 19:15:00 6.8 C 7.19 g/m*3 6.8 C 0 km/h
233 08-11-2021 19:20:00 6.8 C 7.19 g/m*3 6.8 C 0 km/h
234 08-11-2021 19:25:00 6.8 C 7.19 g/m*3 6.8 C 0 km/h
235 08-11-2021 19:30:00 6.8 C 7.19 g/m*3 6.8 C 0 km/h
236 08-11-2021 19:35:00 6.8 C 7.19 g/m*3 6.8 C 0 km/h
237 08-11-2021 19:40:00 6.8 C 7.19 g/m*3 6.8 C 0 km/h
238 08-11-2021 19:45:00 6.8 C 7.19 g/m*3 6.8 C 0 km/h
239 08-11-2021 19:50:00 6.8 C 7.19 g/m*3 6.8 C 0 km/h
240 08-11-2021 19:55:00 6.8 C 7.27 g/m*3 6.8 C 0 km/h
241 08-11-2021 20:00:00 6.8 C 7.27 g/m*3 6.8 C 0 km/h
242 08-11-2021 20:05:00 6.8 C 7.27 g/m*3 6.8 C 0 km/h
243 08-11-2021 20:10:00 6.8 C 7.27 g/m*3 6.8 C 0 km/h
244 08-11-2021 20:15:00 6.9 C 7.31 g/m*3 6.9 C 0 km/h
245 08-11-2021 20:20:00 6.9 C 7.31 g/m*3 6.9 C 0 km/h
246 08-11-2021 20:25:00 6.9 C 7.31 g/m*3 6.9 C 0 km/h
247 08-11-2021 20:30:00 6.9 C 7.31 g/m*3 6.9 C 0 km/h
248 08-11-2021 20:35:00 6.9 C 7.31 g/m*3 6.9 C 0 km/h
249 08-11-2021 20:40:00 6.9 C 7.31 g/m*3 6.9 C 0 km/h
250 08-11-2021 20:45:00 6.9 C 7.31 g/m*3 6.9 C 0 km/h
Sensor: Nr:Datum:Temp:Abs-Feuchte:Windchill:Wind:
Aussen-T/F 251 08-11-2021 20:50:00 6.9 C 7.31 g/m*3 6.9 C 0 km/h
252 08-11-2021 20:55:00 6.9 C 7.31 g/m*3 6.9 C 0 km/h
253 08-11-2021 21:00:00 6.9 C 7.31 g/m*3 6.9 C 0 km/h
254 08-11-2021 21:05:00 6.9 C 7.31 g/m*3 6.9 C 0 km/h
255 08-11-2021 21:10:00 6.9 C 7.31 g/m*3 6.9 C 0 km/h
256 08-11-2021 21:15:00 6.9 C 7.31 g/m*3 6.9 C 0 km/h
257 08-11-2021 21:20:00 6.9 C 7.31 g/m*3 6.9 C 0 km/h
258 08-11-2021 21:25:00 6.9 C 7.31 g/m*3 6.9 C 0 km/h
259 08-11-2021 21:30:00 6.9 C 7.31 g/m*3 6.9 C 0 km/h
260 08-11-2021 21:35:00 6.9 C 7.31 g/m*3 6.9 C 0 km/h
261 08-11-2021 21:40:00 6.9 C 7.31 g/m*3 6.9 C 0 km/h
262 08-11-2021 21:45:00 6.9 C 7.31 g/m*3 6.9 C 0 km/h
263 08-11-2021 21:50:00 6.9 C 7.31 g/m*3 6.9 C 0 km/h
264 08-11-2021 21:55:00 6.9 C 7.31 g/m*3 6.9 C 0 km/h
265 08-11-2021 22:00:00 6.9 C 7.31 g/m*3 6.9 C 0 km/h
266 08-11-2021 22:05:00 6.9 C 7.31 g/m*3 6.9 C 0 km/h
267 08-11-2021 22:10:00 6.9 C 7.31 g/m*3 6.9 C 0 km/h
268 08-11-2021 22:15:00 6.9 C 7.31 g/m*3 6.9 C 0 km/h
269 08-11-2021 22:20:00 6.9 C 7.31 g/m*3 6.9 C 0 km/h
270 08-11-2021 22:25:00 6.9 C 7.31 g/m*3 6.9 C 0 km/h
271 08-11-2021 22:30:00 6.8 C 7.27 g/m*3 6.8 C 0 km/h
272 08-11-2021 22:35:00 6.8 C 7.27 g/m*3 6.8 C 0 km/h
273 08-11-2021 22:40:00 6.8 C 7.27 g/m*3 6.8 C 0 km/h
274 08-11-2021 22:45:00 6.8 C 7.27 g/m*3 6.8 C 0 km/h
275 08-11-2021 22:50:00 6.9 C 7.31 g/m*3 6.9 C 0 km/h
Sensor: Nr:Datum:Temp:Abs-Feuchte:Windchill:Wind:
Aussen-T/F 276 08-11-2021 22:55:00 6.9 C 7.31 g/m*3 6.9 C 0 km/h
277 08-11-2021 23:00:00 6.8 C 7.27 g/m*3 6.8 C 0 km/h
278 08-11-2021 23:05:00 6.8 C 7.27 g/m*3 6.8 C 0 km/h
279 08-11-2021 23:10:00 6.8 C 7.27 g/m*3 6.8 C 0 km/h
280 08-11-2021 23:15:00 6.8 C 7.27 g/m*3 6.8 C 0 km/h
281 08-11-2021 23:20:00 6.7 C 7.22 g/m*3 6.7 C 0 km/h
282 08-11-2021 23:25:00 6.7 C 7.22 g/m*3 6.7 C 0 km/h
283 08-11-2021 23:30:00 6.7 C 7.22 g/m*3 6.7 C 0 km/h
284 08-11-2021 23:35:00 6.6 C 7.17 g/m*3 6.6 C 0 km/h
285 08-11-2021 23:40:00 6.6 C 7.17 g/m*3 6.6 C 0 km/h
286 08-11-2021 23:45:00 6.6 C 7.17 g/m*3 6.6 C 0 km/h
287 08-11-2021 23:50:00 6.6 C 7.17 g/m*3 6.6 C 0 km/h
288 08-11-2021 23:55:00 6.6 C 7.17 g/m*3 6.6 C 0 km/h
289 09-11-2021 00:00:00 6.6 C 7.17 g/m*3 6.6 C 0 km/h
290 09-11-2021 00:05:00 6.6 C 7.17 g/m*3 6.6 C 0 km/h
291 09-11-2021 00:10:00 6.6 C 7.17 g/m*3 6.6 C 0 km/h
292 09-11-2021 00:15:00 6.5 C 7.12 g/m*3 6.5 C 0 km/h
293 09-11-2021 00:20:00 6.6 C 7.17 g/m*3 6.6 C 0 km/h
294 09-11-2021 00:25:00 6.6 C 7.17 g/m*3 6.6 C 0 km/h
295 09-11-2021 00:30:00 6.5 C 7.12 g/m*3 6.5 C 0 km/h
296 09-11-2021 00:35:00 6.6 C 7.17 g/m*3 6.6 C 0 km/h
297 09-11-2021 00:40:00 6.6 C 7.17 g/m*3 6.6 C 0 km/h
298 09-11-2021 00:45:00 6.6 C 7.17 g/m*3 6.6 C 0 km/h
299 09-11-2021 00:50:00 6.6 C 7.17 g/m*3 6.6 C 0 km/h
300 09-11-2021 00:55:00 6.6 C 7.17 g/m*3 6.6 C 0 km/h
Sensor: Nr:Datum:Temp:Abs-Feuchte:Windchill:Wind:
Aussen-T/F 301 09-11-2021 01:00:00 6.6 C 7.17 g/m*3 6.6 C 0 km/h
302 09-11-2021 01:05:00 6.6 C 7.17 g/m*3 6.6 C 0 km/h
303 09-11-2021 01:10:00 6.6 C 7.17 g/m*3 6.6 C 0 km/h
304 09-11-2021 01:15:00 6.6 C 7.17 g/m*3 6.6 C 0 km/h
305 09-11-2021 01:20:00 6.6 C 7.17 g/m*3 6.6 C 0 km/h
306 09-11-2021 01:25:00 6.5 C 7.12 g/m*3 6.5 C 0 km/h
307 09-11-2021 01:30:00 6.5 C 7.12 g/m*3 6.5 C 0 km/h
308 09-11-2021 01:35:00 6.5 C 7.12 g/m*3 6.5 C 0 km/h
309 09-11-2021 01:40:00 6.5 C 7.12 g/m*3 6.5 C 0 km/h
310 09-11-2021 01:45:00 6.5 C 7.12 g/m*3 6.5 C 0 km/h
311 09-11-2021 01:50:00 6.5 C 7.12 g/m*3 6.5 C 0 km/h
312 09-11-2021 01:55:00 6.5 C 7.12 g/m*3 6.5 C 0 km/h
313 09-11-2021 02:00:00 6.4 C 7.08 g/m*3 6.4 C 0 km/h
314 09-11-2021 02:05:00 6.4 C 7.08 g/m*3 6.4 C 0 km/h
315 09-11-2021 02:10:00 6.4 C 7.08 g/m*3 6.4 C 0 km/h
316 09-11-2021 02:15:00 6.4 C 7.08 g/m*3 6.4 C 0 km/h
317 09-11-2021 02:20:00 6.4 C 7.08 g/m*3 6.4 C 0 km/h
318 09-11-2021 02:25:00 6.4 C 7.08 g/m*3 6.4 C 0 km/h
319 09-11-2021 02:30:00 6.4 C 7.08 g/m*3 6.4 C 0 km/h
320 09-11-2021 02:35:00 6.4 C 7.08 g/m*3 6.4 C 0 km/h
321 09-11-2021 02:40:00 6.4 C 7.08 g/m*3 6.4 C 0 km/h
322 09-11-2021 02:45:00 6.4 C 7.08 g/m*3 6.4 C 0 km/h
323 09-11-2021 02:50:00 6.4 C 7.08 g/m*3 6.4 C 0 km/h
324 09-11-2021 02:55:00 6.3 C 7.03 g/m*3 6.3 C 0 km/h
325 09-11-2021 03:00:00 6.3 C 7.03 g/m*3 6.3 C 0 km/h
Sensor: Nr:Datum:Temp:Abs-Feuchte:Windchill:Wind:
Aussen-T/F 326 09-11-2021 03:05:00 6.3 C 7.03 g/m*3 6.3 C 0 km/h
327 09-11-2021 03:10:00 6.3 C 7.03 g/m*3 6.3 C 0 km/h
328 09-11-2021 03:15:00 6.3 C 7.03 g/m*3 6.3 C 0 km/h
329 09-11-2021 03:20:00 6.3 C 7.03 g/m*3 6.3 C 0 km/h
330 09-11-2021 03:25:00 6.3 C 7.03 g/m*3 6.3 C 0 km/h
331 09-11-2021 03:30:00 6.3 C 7.03 g/m*3 6.3 C 0 km/h
332 09-11-2021 03:35:00 6.3 C 7.03 g/m*3 6.3 C 0 km/h
333 09-11-2021 03:40:00 6.2 C 6.99 g/m*3 6.2 C 0 km/h
334 09-11-2021 03:45:00 6.2 C 6.99 g/m*3 6.2 C 0 km/h
335 09-11-2021 03:50:00 6.2 C 6.99 g/m*3 6.2 C 0 km/h
336 09-11-2021 03:55:00 6.2 C 6.99 g/m*3 6.2 C 0 km/h
337 09-11-2021 04:00:00 6.1 C 6.94 g/m*3 6.1 C 0 km/h
338 09-11-2021 04:05:00 6.1 C 6.94 g/m*3 6.1 C 0 km/h
339 09-11-2021 04:10:00 6.1 C 6.94 g/m*3 6.1 C 0 km/h
340 09-11-2021 04:15:00 6.1 C 6.94 g/m*3 6.1 C 0 km/h
341 09-11-2021 04:20:00 6 C 6.9 g/m*3 6 C 0 km/h
342 09-11-2021 04:25:00 6 C 6.9 g/m*3 6 C 0 km/h
343 09-11-2021 04:30:00 5.9 C 6.85 g/m*3 5.9 C 0 km/h
344 09-11-2021 04:35:00 5.9 C 6.85 g/m*3 5.9 C 0 km/h
345 09-11-2021 04:40:00 5.9 C 6.85 g/m*3 5.9 C 0 km/h
346 09-11-2021 04:45:00 5.9 C 6.85 g/m*3 5.9 C 1.6 km/h
347 09-11-2021 04:50:00 5.8 C 6.88 g/m*3 5.8 C 0 km/h
348 09-11-2021 04:55:00 5.8 C 6.88 g/m*3 5.8 C 0 km/h
349 09-11-2021 05:00:00 5.8 C 6.88 g/m*3 5.8 C 0 km/h
350 09-11-2021 05:05:00 5.8 C 6.88 g/m*3 5.8 C 0 km/h
Sensor: Nr:Datum:Temp:Abs-Feuchte:Windchill:Wind:
Aussen-T/F 351 09-11-2021 05:10:00 5.7 C 6.76 g/m*3 5.7 C 0 km/h
352 09-11-2021 05:15:00 5.6 C 6.72 g/m*3 5.6 C 0 km/h
353 09-11-2021 05:20:00 5.3 C 6.58 g/m*3 5.3 C 0 km/h
354 09-11-2021 05:25:00 5.1 C 6.43 g/m*3 5.1 C 0 km/h
355 09-11-2021 05:30:00 4.8 C 6.3 g/m*3 4.8 C 0 km/h
356 09-11-2021 05:35:00 4.6 C 6.22 g/m*3 4.6 C 0 km/h
357 09-11-2021 05:40:00 4.5 C 6.18 g/m*3 4.5 C 0 km/h
358 09-11-2021 05:45:00 4.3 C 6.1 g/m*3 4.3 C 0 km/h
359 09-11-2021 05:50:00 4.3 C 6.16 g/m*3 4.3 C 0 km/h
360 09-11-2021 05:55:00 4.2 C 6.12 g/m*3 4.2 C 0 km/h
361 09-11-2021 06:00:00 4.1 C 6.08 g/m*3 4.1 C 0 km/h
362 09-11-2021 06:05:00 3.9 C 6 g/m*3 3.9 C 0 km/h
363 09-11-2021 06:10:00 3.8 C 5.96 g/m*3 3.8 C 0 km/h
364 09-11-2021 06:15:00 3.8 C 5.96 g/m*3 3.8 C 0 km/h
365 09-11-2021 06:20:00 3.8 C 5.96 g/m*3 3.8 C 0 km/h
366 09-11-2021 06:25:00 3.7 C 5.92 g/m*3 3.7 C 0 km/h
367 09-11-2021 06:30:00 3.6 C 5.88 g/m*3 3.6 C 1.6 km/h
368 09-11-2021 06:35:00 3.5 C 5.84 g/m*3 3.5 C 0 km/h
369 09-11-2021 06:40:00 3.4 C 5.8 g/m*3 3.4 C 0 km/h
370 09-11-2021 06:45:00 3.3 C 5.76 g/m*3 3.3 C 0 km/h
371 09-11-2021 06:50:00 3.2 C 5.72 g/m*3 3.2 C 0 km/h
372 09-11-2021 06:55:00 3.2 C 5.72 g/m*3 3.2 C 0 km/h
373 09-11-2021 07:00:00 3.1 C 5.69 g/m*3 3.1 C 0 km/h
374 09-11-2021 07:05:00 2.9 C 5.61 g/m*3 2.9 C 0 km/h
375 09-11-2021 07:10:00 2.9 C 5.61 g/m*3 2.9 C 3.2 km/h
Sensor: Nr:Datum:Temp:Abs-Feuchte:Windchill:Wind:
Aussen-T/F 376 09-11-2021 07:15:00 2.9 C 5.61 g/m*3 2.9 C 0 km/h
377 09-11-2021 07:20:00 2.8 C 5.57 g/m*3 2.8 C 0 km/h
378 09-11-2021 07:25:00 2.8 C 5.57 g/m*3 2.8 C 0 km/h
379 09-11-2021 07:30:00 2.8 C 5.63 g/m*3 2.8 C 0 km/h
380 09-11-2021 07:35:00 2.8 C 5.63 g/m*3 2.8 C 0 km/h
381 09-11-2021 07:40:00 2.8 C 5.63 g/m*3 2.8 C 0 km/h
382 09-11-2021 07:45:00 2.9 C 5.67 g/m*3 2.9 C 0 km/h
383 09-11-2021 07:50:00 3 C 5.71 g/m*3 3 C 0 km/h
384 09-11-2021 07:55:00 3.2 C 5.79 g/m*3 3.2 C 0 km/h
385 09-11-2021 08:00:00 3.3 C 5.82 g/m*3 3.3 C 0 km/h
386 09-11-2021 08:05:00 3.5 C 5.9 g/m*3 3.5 C 0 km/h
387 09-11-2021 08:10:00 3.6 C 5.94 g/m*3 3.6 C 0 km/h
388 09-11-2021 08:15:00 3.7 C 5.98 g/m*3 3.7 C 1.6 km/h
389 09-11-2021 08:20:00 3.8 C 6.02 g/m*3 3.8 C 0 km/h
390 09-11-2021 08:25:00 3.9 C 6.06 g/m*3 3.9 C 0 km/h
391 09-11-2021 08:30:00 4.1 C 6.14 g/m*3 4.1 C 0 km/h
392 09-11-2021 08:35:00 4.1 C 6.21 g/m*3 4.1 C 0 km/h
393 09-11-2021 08:40:00 4.2 C 6.25 g/m*3 4.2 C 0 km/h
394 09-11-2021 08:45:00 4.3 C 6.23 g/m*3 4.3 C 0 km/h
395 09-11-2021 08:50:00 4.3 C 6.23 g/m*3 4.3 C 0 km/h
396 09-11-2021 08:55:00 4.4 C 6.33 g/m*3 4.4 C 0 km/h
397 09-11-2021 09:00:00 4.5 C 6.38 g/m*3 4.5 C 0 km/h
398 09-11-2021 09:05:00 4.6 C 6.42 g/m*3 4.6 C 0 km/h
399 09-11-2021 09:10:00 4.7 C 6.46 g/m*3 4.7 C 1.6 km/h
400 09-11-2021 09:15:00 4.7 C 6.39 g/m*3 4.7 C 0 km/h
Sensor: Nr:Datum:Temp:Abs-Feuchte:Windchill:Wind:
Aussen-T/F 401 09-11-2021 09:20:00 4.7 C 6.46 g/m*3 4.7 C 1.6 km/h
402 09-11-2021 09:25:00 4.7 C 6.46 g/m*3 4.7 C 1.6 km/h
403 09-11-2021 09:30:00 4.7 C 6.46 g/m*3 4.7 C 1.6 km/h
404 09-11-2021 09:35:00 4.7 C 6.39 g/m*3 4.7 C 1.6 km/h
405 09-11-2021 09:40:00 4.7 C 6.46 g/m*3 4.7 C 1.6 km/h
406 09-11-2021 09:45:00 4.7 C 6.46 g/m*3 4.7 C 1.6 km/h
407 09-11-2021 09:50:00 4.7 C 6.46 g/m*3 4.7 C 3.2 km/h
408 09-11-2021 09:55:00 4.8 C 6.5 g/m*3 4.8 C 1.6 km/h
409 09-11-2021 10:00:00 4.8 C 6.5 g/m*3 4.8 C 3.2 km/h
410 09-11-2021 10:05:00 4.9 C 6.55 g/m*3 4.9 C 1.6 km/h
411 09-11-2021 10:10:00 4.9 C 6.55 g/m*3 4.9 C 1.6 km/h
412 09-11-2021 10:15:00 4.9 C 6.55 g/m*3 4.9 C 3.2 km/h
413 09-11-2021 10:20:00 4.9 C 6.55 g/m*3 4.9 C 1.6 km/h
414 09-11-2021 10:25:00 5 C 6.59 g/m*3 5 C 1.6 km/h
415 09-11-2021 10:30:00 5 C 6.59 g/m*3 5 C 1.6 km/h
416 09-11-2021 10:35:00 5.1 C 6.63 g/m*3 5.1 C 1.6 km/h
417 09-11-2021 10:40:00 5.1 C 6.63 g/m*3 5.1 C 3.2 km/h
418 09-11-2021 10:45:00 5.1 C 6.63 g/m*3 5.1 C 1.6 km/h
419 09-11-2021 10:50:00 5.1 C 6.63 g/m*3 5.1 C 1.6 km/h
420 09-11-2021 10:55:00 5.1 C 6.63 g/m*3 5.1 C 0 km/h
421 09-11-2021 11:00:00 5.1 C 6.63 g/m*3 5.1 C 0 km/h
422 09-11-2021 11:05:00 5.2 C 6.68 g/m*3 5.2 C 0 km/h
423 09-11-2021 11:10:00 5.2 C 6.68 g/m*3 5.2 C 0 km/h
424 09-11-2021 11:15:00 5.3 C 6.72 g/m*3 5.3 C 0 km/h
425 09-11-2021 11:20:00 5.4 C 6.77 g/m*3 5.4 C 1.6 km/h
Sensor: Nr:Datum:Temp:Abs-Feuchte:Windchill:Wind:
Aussen-T/F 426 09-11-2021 11:25:00 5.6 C 6.86 g/m*3 5.6 C 3.2 km/h
427 09-11-2021 11:30:00 5.5 C 6.81 g/m*3 5.5 C 4.8 km/h
428 09-11-2021 11:35:00 5.5 C 6.81 g/m*3 5.5 C 3.2 km/h
429 09-11-2021 11:40:00 5.4 C 6.77 g/m*3 5.4 C 3.2 km/h
430 09-11-2021 11:45:00 5.6 C 6.86 g/m*3 5.6 C 3.2 km/h
431 09-11-2021 11:50:00 5.7 C 6.9 g/m*3 5.7 C 1.6 km/h
432 09-11-2021 11:55:00 5.8 C 6.95 g/m*3 5.8 C 3.2 km/h
433 09-11-2021 12:00:00 5.8 C 6.95 g/m*3 5.8 C 1.6 km/h
434 09-11-2021 12:05:00 5.9 C 6.99 g/m*3 5.9 C 0 km/h
435 09-11-2021 12:10:00 6.1 C 7.09 g/m*3 6.1 C 3.2 km/h
436 09-11-2021 12:15:00 6.1 C 7.09 g/m*3 6.1 C 0 km/h
437 09-11-2021 12:20:00 6.2 C 7.13 g/m*3 6.2 C 1.6 km/h
438 09-11-2021 12:25:00 6.3 C 7.18 g/m*3 6.3 C 0 km/h
439 09-11-2021 12:30:00 6.4 C 7.23 g/m*3 6.4 C 0 km/h
440 09-11-2021 12:35:00 6.4 C 7.23 g/m*3 6.4 C 0 km/h
441 09-11-2021 12:40:00 6.6 C 7.32 g/m*3 6.6 C 1.6 km/h
442 09-11-2021 12:45:00 6.7 C 7.37 g/m*3 6.7 C 1.6 km/h
443 09-11-2021 12:50:00 6.8 C 7.42 g/m*3 6.8 C 0 km/h
444 09-11-2021 12:55:00 6.9 C 7.47 g/m*3 6.9 C 0 km/h
445 09-11-2021 13:00:00 6.9 C 7.47 g/m*3 6.9 C 0 km/h
446 09-11-2021 13:05:00 7 C 7.52 g/m*3 7 C 0 km/h
447 09-11-2021 13:10:00 7.1 C 7.57 g/m*3 7.1 C 0 km/h
448 09-11-2021 13:15:00 7.1 C 7.57 g/m*3 7.1 C 0 km/h
449 09-11-2021 13:20:00 7.1 C 7.57 g/m*3 7.1 C 0 km/h
450 09-11-2021 13:25:00 7.1 C 7.57 g/m*3 7.1 C 0 km/h
Sensor: Nr:Datum:Temp:Abs-Feuchte:Windchill:Wind:
Aussen-T/F 451 09-11-2021 13:30:00 7.1 C 7.57 g/m*3 7.1 C 0 km/h
452 09-11-2021 13:35:00 7.2 C 7.61 g/m*3 7.2 C 0 km/h
453 09-11-2021 13:40:00 7.2 C 7.61 g/m*3 7.2 C 3.2 km/h
454 09-11-2021 13:45:00 7.2 C 7.61 g/m*3 7.2 C 0 km/h
455 09-11-2021 13:50:00 7.2 C 7.61 g/m*3 7.2 C 3.2 km/h
456 09-11-2021 13:55:00 7.2 C 7.61 g/m*3 7.2 C 3.2 km/h
457 09-11-2021 14:00:00 7.2 C 7.61 g/m*3 7.2 C 1.6 km/h
458 09-11-2021 14:05:00 7.2 C 7.61 g/m*3 7.2 C 1.6 km/h
459 09-11-2021 14:10:00 7.2 C 7.61 g/m*3 7.2 C 0 km/h
460 09-11-2021 14:15:00 7.2 C 7.61 g/m*3 7.2 C 4.8 km/h
461 09-11-2021 14:20:00 7.3 C 7.66 g/m*3 7.3 C 1.6 km/h
462 09-11-2021 14:25:00 7.3 C 7.66 g/m*3 7.3 C 1.6 km/h
463 09-11-2021 14:30:00 7.3 C 7.66 g/m*3 7.3 C 0 km/h
464 09-11-2021 14:35:00 7.3 C 7.66 g/m*3 7.3 C 3.2 km/h
465 09-11-2021 14:40:00 7.3 C 7.58 g/m*3 7.3 C 4.8 km/h
466 09-11-2021 14:45:00 7.3 C 7.58 g/m*3 7.3 C 4.8 km/h
467 09-11-2021 14:50:00 7.3 C 7.58 g/m*3 7.3 C 3.2 km/h
468 09-11-2021 14:55:00 7.3 C 7.58 g/m*3 7.3 C 4.8 km/h
469 09-11-2021 15:00:00 7.4 C 7.63 g/m*3 7.4 C 3.2 km/h
470 09-11-2021 15:05:00 7.3 C 7.58 g/m*3 7.3 C 4.8 km/h
471 09-11-2021 15:10:00 7.3 C 7.58 g/m*3 6.25 C 6.4 km/h
472 09-11-2021 15:15:00 7.4 C 7.63 g/m*3 7.4 C 4.8 km/h
473 09-11-2021 15:20:00 7.4 C 7.63 g/m*3 7.4 C 0 km/h
474 09-11-2021 15:25:00 7.4 C 7.55 g/m*3 7.4 C 0 km/h
475 09-11-2021 15:30:00 7.3 C 7.51 g/m*3 7.3 C 3.2 km/h
Sensor: Nr:Datum:Temp:Abs-Feuchte:Windchill:Wind:
Aussen-T/F 476 09-11-2021 15:35:00 7.3 C 7.51 g/m*3 7.3 C 3.2 km/h
477 09-11-2021 15:40:00 7.3 C 7.51 g/m*3 7.3 C 3.2 km/h
478 09-11-2021 15:45:00 7.3 C 7.51 g/m*3 7.3 C 4.8 km/h
479 09-11-2021 15:50:00 7.3 C 7.43 g/m*3 7.3 C 1.6 km/h
480 09-11-2021 15:55:00 7.2 C 7.38 g/m*3 7.2 C 3.2 km/h
481 09-11-2021 16:00:00 7.2 C 7.38 g/m*3 7.2 C 0 km/h
482 09-11-2021 16:05:00 7.1 C 7.33 g/m*3 7.1 C 3.2 km/h
483 09-11-2021 16:10:00 7.1 C 7.33 g/m*3 7.1 C 1.6 km/h
484 09-11-2021 16:15:00 6.9 C 7.24 g/m*3 6.9 C 0 km/h
485 09-11-2021 16:20:00 6.8 C 7.11 g/m*3 6.8 C 1.6 km/h
486 09-11-2021 16:25:00 6.8 C 7.11 g/m*3 6.8 C 3.2 km/h
487 09-11-2021 16:30:00 6.7 C 7.07 g/m*3 6.7 C 0 km/h
488 09-11-2021 16:35:00 6.7 C 7.07 g/m*3 6.7 C 0 km/h
489 09-11-2021 16:40:00 6.7 C 7.07 g/m*3 6.7 C 0 km/h
490 09-11-2021 16:45:00 6.6 C 7.02 g/m*3 6.6 C 0 km/h
491 09-11-2021 16:50:00 6.5 C 6.97 g/m*3 6.5 C 1.6 km/h
492 09-11-2021 16:55:00 6.4 C 6.93 g/m*3 6.4 C 1.6 km/h
493 09-11-2021 17:00:00 6.4 C 6.93 g/m*3 6.4 C 4.8 km/h
494 09-11-2021 17:05:00 6.4 C 6.93 g/m*3 6.4 C 3.2 km/h
495 09-11-2021 17:10:00 6.3 C 6.81 g/m*3 6.3 C 3.2 km/h
496 09-11-2021 17:15:00 6.3 C 6.81 g/m*3 6.3 C 4.8 km/h
497 09-11-2021 17:20:00 6.2 C 6.77 g/m*3 6.2 C 3.2 km/h
498 09-11-2021 17:25:00 6.2 C 6.77 g/m*3 6.2 C 1.6 km/h
499 09-11-2021 17:30:00 6.2 C 6.77 g/m*3 6.2 C 0 km/h
500 09-11-2021 17:35:00 6.1 C 6.65 g/m*3 6.1 C 1.6 km/h
Sensor: Nr:Datum:Temp:Abs-Feuchte:Windchill:Wind:
Aussen-T/F 501 09-11-2021 17:40:00 5.9 C 6.56 g/m*3 5.9 C 0 km/h
502 09-11-2021 17:45:00 5.7 C 6.48 g/m*3 5.7 C 1.6 km/h
503 09-11-2021 17:50:00 5.5 C 6.46 g/m*3 5.5 C 0 km/h
504 09-11-2021 17:55:00 5.3 C 6.38 g/m*3 5.3 C 0 km/h
505 09-11-2021 18:00:00 5.2 C 6.33 g/m*3 5.2 C 0 km/h
506 09-11-2021 18:05:00 5 C 6.25 g/m*3 5 C 0 km/h
507 09-11-2021 18:10:00 4.9 C 6.21 g/m*3 4.9 C 0 km/h
508 09-11-2021 18:15:00 4.8 C 6.17 g/m*3 4.8 C 0 km/h
509 09-11-2021 18:20:00 4.7 C 6.19 g/m*3 4.7 C 0 km/h
510 09-11-2021 18:25:00 4.5 C 6.11 g/m*3 4.5 C 0 km/h
511 09-11-2021 18:30:00 4.4 C 6.07 g/m*3 4.4 C 0 km/h
512 09-11-2021 18:35:00 4.4 C 6.07 g/m*3 4.4 C 0 km/h
513 09-11-2021 18:40:00 4.3 C 6.03 g/m*3 4.3 C 0 km/h
514 09-11-2021 18:45:00 4.3 C 6.03 g/m*3 4.3 C 0 km/h
515 09-11-2021 18:50:00 4.2 C 6.06 g/m*3 4.2 C 0 km/h
516 09-11-2021 18:55:00 4.1 C 5.95 g/m*3 4.1 C 0 km/h
517 09-11-2021 19:00:00 4 C 5.91 g/m*3 4 C 0 km/h
518 09-11-2021 19:05:00 3.9 C 5.94 g/m*3 3.9 C 0 km/h
519 09-11-2021 19:10:00 3.8 C 5.9 g/m*3 3.8 C 0 km/h
520 09-11-2021 19:15:00 3.7 C 5.86 g/m*3 3.7 C 0 km/h
521 09-11-2021 19:20:00 3.7 C 5.86 g/m*3 3.7 C 0 km/h
522 09-11-2021 19:25:00 3.6 C 5.82 g/m*3 3.6 C 0 km/h
523 09-11-2021 19:30:00 3.5 C 5.78 g/m*3 3.5 C 0 km/h
524 09-11-2021 19:35:00 3.4 C 5.74 g/m*3 3.4 C 0 km/h
525 09-11-2021 19:40:00 3.3 C 5.7 g/m*3 3.3 C 0 km/h
Sensor: Nr:Datum:Temp:Abs-Feuchte:Windchill:Wind:
Aussen-T/F 526 09-11-2021 19:45:00 3.2 C 5.66 g/m*3 3.2 C 0 km/h
527 09-11-2021 19:50:00 3.2 C 5.66 g/m*3 3.2 C 0 km/h
528 09-11-2021 19:55:00 3.1 C 5.63 g/m*3 3.1 C 0 km/h
529 09-11-2021 20:00:00 3.1 C 5.63 g/m*3 3.1 C 0 km/h
530 09-11-2021 20:05:00 3 C 5.59 g/m*3 3 C 0 km/h
531 09-11-2021 20:10:00 2.9 C 5.55 g/m*3 2.9 C 0 km/h
532 09-11-2021 20:15:00 2.8 C 5.51 g/m*3 2.8 C 0 km/h
533 09-11-2021 20:20:00 2.8 C 5.51 g/m*3 2.8 C 0 km/h
534 09-11-2021 20:25:00 2.8 C 5.51 g/m*3 2.8 C 0 km/h
535 09-11-2021 20:30:00 2.7 C 5.48 g/m*3 2.7 C 0 km/h
536 09-11-2021 20:35:00 2.6 C 5.5 g/m*3 2.6 C 0 km/h
537 09-11-2021 20:40:00 2.6 C 5.5 g/m*3 2.6 C 0 km/h
538 09-11-2021 20:45:00 2.6 C 5.5 g/m*3 2.6 C 0 km/h
539 09-11-2021 20:50:00 2.4 C 5.42 g/m*3 2.4 C 0 km/h
540 09-11-2021 20:55:00 2.4 C 5.42 g/m*3 2.4 C 0 km/h
541 09-11-2021 21:00:00 2.3 C 5.39 g/m*3 2.3 C 0 km/h
542 09-11-2021 21:05:00 2.3 C 5.39 g/m*3 2.3 C 0 km/h
543 09-11-2021 21:10:00 2.2 C 5.35 g/m*3 2.2 C 0 km/h
544 09-11-2021 21:15:00 2.2 C 5.35 g/m*3 2.2 C 0 km/h
545 09-11-2021 21:20:00 2.1 C 5.31 g/m*3 2.1 C 0 km/h
546 09-11-2021 21:25:00 2.1 C 5.31 g/m*3 2.1 C 0 km/h
547 09-11-2021 21:30:00 2.1 C 5.31 g/m*3 2.1 C 0 km/h
548 09-11-2021 21:35:00 2 C 5.28 g/m*3 2 C 0 km/h
549 09-11-2021 21:40:00 1.9 C 5.24 g/m*3 1.9 C 0 km/h
550 09-11-2021 21:45:00 1.8 C 5.21 g/m*3 1.8 C 0 km/h
Sensor: Nr:Datum:Temp:Abs-Feuchte:Windchill:Wind:
Aussen-T/F 551 09-11-2021 21:50:00 1.7 C 5.17 g/m*3 1.7 C 0 km/h
552 09-11-2021 21:55:00 1.7 C 5.17 g/m*3 1.7 C 0 km/h
553 09-11-2021 22:00:00 1.7 C 5.17 g/m*3 1.7 C 0 km/h
554 09-11-2021 22:05:00 1.7 C 5.17 g/m*3 1.7 C 0 km/h
555 09-11-2021 22:10:00 1.7 C 5.17 g/m*3 1.7 C 0 km/h
556 09-11-2021 22:15:00 1.6 C 5.14 g/m*3 1.6 C 0 km/h
557 09-11-2021 22:20:00 1.5 C 5.1 g/m*3 1.5 C 0 km/h
558 09-11-2021 22:25:00 1.4 C 5.07 g/m*3 1.4 C 0 km/h
559 09-11-2021 22:30:00 1.4 C 5.07 g/m*3 1.4 C 1.6 km/h
560 09-11-2021 22:35:00 1.4 C 5.07 g/m*3 1.4 C 0 km/h
561 09-11-2021 22:40:00 1.4 C 5.07 g/m*3 1.4 C 0 km/h
562 09-11-2021 22:45:00 1.5 C 5.1 g/m*3 1.5 C 0 km/h
563 09-11-2021 22:50:00 1.6 C 5.19 g/m*3 1.6 C 1.6 km/h
564 09-11-2021 22:55:00 1.7 C 5.23 g/m*3 1.7 C 0 km/h
565 09-11-2021 23:00:00 1.7 C 5.23 g/m*3 1.7 C 0 km/h
566 09-11-2021 23:05:00 1.7 C 5.23 g/m*3 1.7 C 0 km/h
567 09-11-2021 23:10:00 1.5 C 5.16 g/m*3 1.5 C 0 km/h
568 09-11-2021 23:15:00 1.4 C 5.07 g/m*3 1.4 C 0 km/h
569 09-11-2021 23:20:00 1.2 C 5 g/m*3 1.2 C 0 km/h
570 09-11-2021 23:25:00 1.1 C 4.96 g/m*3 1.1 C 0 km/h
571 09-11-2021 23:30:00 1 C 4.93 g/m*3 1 C 0 km/h
572 09-11-2021 23:35:00 0.9 C 4.9 g/m*3 0.9 C 0 km/h
573 09-11-2021 23:40:00 0.9 C 4.9 g/m*3 0.9 C 0 km/h
574 09-11-2021 23:45:00 0.9 C 4.9 g/m*3 0.9 C 0 km/h
575 09-11-2021 23:50:00 0.9 C 4.95 g/m*3 0.9 C 0 km/h
Sensor: Nr:Datum:Temp:Abs-Feuchte:Windchill:Wind:
Aussen-T/F 576 09-11-2021 23:55:00 0.9 C 4.95 g/m*3 0.9 C 0 km/h
577 10-11-2021 00:00:00 0.9 C 4.95 g/m*3 0.9 C 0 km/h
578 10-11-2021 00:05:00 0.8 C 4.86 g/m*3 0.8 C 0 km/h
579 10-11-2021 00:10:00 0.8 C 4.86 g/m*3 0.8 C 0 km/h
580 10-11-2021 00:15:00 0.7 C 4.83 g/m*3 0.7 C 0 km/h
581 10-11-2021 00:20:00 0.6 C 4.8 g/m*3 0.6 C 0 km/h
582 10-11-2021 00:25:00 0.5 C 4.76 g/m*3 0.5 C 0 km/h
583 10-11-2021 00:30:00 0.5 C 4.76 g/m*3 0.5 C 0 km/h
584 10-11-2021 00:35:00 0.4 C 4.73 g/m*3 0.4 C 0 km/h
585 10-11-2021 00:40:00 0.4 C 4.73 g/m*3 0.4 C 0 km/h
586 10-11-2021 00:45:00 0.3 C 4.75 g/m*3 0.3 C 0 km/h
587 10-11-2021 00:50:00 0.3 C 4.75 g/m*3 0.3 C 0 km/h
588 10-11-2021 00:55:00 0.3 C 4.75 g/m*3 0.3 C 0 km/h
589 10-11-2021 01:00:00 0.3 C 4.7 g/m*3 0.3 C 0 km/h
590 10-11-2021 01:05:00 0.2 C 4.67 g/m*3 0.2 C 0 km/h
591 10-11-2021 01:10:00 0.3 C 4.75 g/m*3 0.3 C 0 km/h
592 10-11-2021 01:15:00 0.2 C 4.72 g/m*3 0.2 C 0 km/h
593 10-11-2021 01:20:00 0.2 C 4.72 g/m*3 0.2 C 0 km/h
594 10-11-2021 01:25:00 0.2 C 4.72 g/m*3 0.2 C 0 km/h
595 10-11-2021 01:30:00 0.1 C 4.68 g/m*3 0.1 C 0 km/h
596 10-11-2021 01:35:00 0.1 C 4.68 g/m*3 0.1 C 0 km/h
597 10-11-2021 01:40:00 0.2 C 4.72 g/m*3 0.2 C 0 km/h
598 10-11-2021 01:45:00 0.3 C 4.75 g/m*3 0.3 C 1.6 km/h
599 10-11-2021 01:50:00 0.4 C 4.78 g/m*3 0.4 C 1.6 km/h
600 10-11-2021 01:55:00 0.5 C 4.81 g/m*3 0.5 C 0 km/h
Sensor: Nr:Datum:Temp:Abs-Feuchte:Windchill:Wind:
Aussen-T/F 601 10-11-2021 02:00:00 0.4 C 4.78 g/m*3 0.4 C 0 km/h
602 10-11-2021 02:05:00 0.3 C 4.75 g/m*3 0.3 C 0 km/h
603 10-11-2021 02:10:00 0.2 C 4.72 g/m*3 0.2 C 0 km/h
604 10-11-2021 02:15:00 0.1 C 4.68 g/m*3 0.1 C 0 km/h
605 10-11-2021 02:20:00 0.1 C 4.68 g/m*3 0.1 C 0 km/h
606 10-11-2021 02:25:00 0.1 C 4.68 g/m*3 0.1 C 0 km/h
607 10-11-2021 02:30:00 0.1 C 4.68 g/m*3 0.1 C 0 km/h
608 10-11-2021 02:35:00 0.1 C 4.68 g/m*3 0.1 C 0 km/h
609 10-11-2021 02:40:00 0.1 C 4.68 g/m*3 0.1 C 0 km/h
610 10-11-2021 02:45:00 0.1 C 4.68 g/m*3 0.1 C 0 km/h
611 10-11-2021 02:50:00 0.1 C 4.68 g/m*3 0.1 C 0 km/h
612 10-11-2021 02:55:00 0 C 4.65 g/m*3 0 C 0 km/h
613 10-11-2021 03:00:00 0 C 4.65 g/m*3 0 C 0 km/h
614 10-11-2021 03:05:00 0.1 C 4.68 g/m*3 0.1 C 0 km/h
615 10-11-2021 03:10:00 0.1 C 4.68 g/m*3 0.1 C 0 km/h
616 10-11-2021 03:15:00 0.1 C 4.68 g/m*3 0.1 C 0 km/h
617 10-11-2021 03:20:00 0.2 C 4.72 g/m*3 0.2 C 0 km/h
618 10-11-2021 03:25:00 0.3 C 4.75 g/m*3 0.3 C 0 km/h
619 10-11-2021 03:30:00 0.3 C 4.75 g/m*3 0.3 C 0 km/h
620 10-11-2021 03:35:00 0.3 C 4.75 g/m*3 0.3 C 0 km/h
621 10-11-2021 03:40:00 0.3 C 4.75 g/m*3 0.3 C 0 km/h
622 10-11-2021 03:45:00 0.4 C 4.78 g/m*3 0.4 C 0 km/h
623 10-11-2021 03:50:00 0.4 C 4.78 g/m*3 0.4 C 0 km/h
624 10-11-2021 03:55:00 0.3 C 4.75 g/m*3 0.3 C 0 km/h
625 10-11-2021 04:00:00 0.3 C 4.75 g/m*3 0.3 C 0 km/h
Sensor: Nr:Datum:Temp:Abs-Feuchte:Windchill:Wind:
Aussen-T/F 626 10-11-2021 04:05:00 0.3 C 4.75 g/m*3 0.3 C 0 km/h
627 10-11-2021 04:10:00 0.3 C 4.75 g/m*3 0.3 C 0 km/h
628 10-11-2021 04:15:00 0.3 C 4.75 g/m*3 0.3 C 0 km/h
629 10-11-2021 04:20:00 0.3 C 4.75 g/m*3 0.3 C 0 km/h
630 10-11-2021 04:25:00 0.3 C 4.75 g/m*3 0.3 C 1.6 km/h
631 10-11-2021 04:30:00 0.3 C 4.75 g/m*3 0.3 C 1.6 km/h
632 10-11-2021 04:35:00 0.4 C 4.78 g/m*3 0.4 C 1.6 km/h
633 10-11-2021 04:40:00 0.4 C 4.78 g/m*3 0.4 C 0 km/h
634 10-11-2021 04:45:00 0.4 C 4.78 g/m*3 0.4 C 0 km/h
635 10-11-2021 04:50:00 0.4 C 4.78 g/m*3 0.4 C 0 km/h
636 10-11-2021 04:55:00 0.4 C 4.78 g/m*3 0.4 C 0 km/h
637 10-11-2021 05:00:00 0.3 C 4.75 g/m*3 0.3 C 0 km/h
638 10-11-2021 05:05:00 0.3 C 4.75 g/m*3 0.3 C 0 km/h
639 10-11-2021 05:10:00 0.3 C 4.75 g/m*3 0.3 C 0 km/h
640 10-11-2021 05:15:00 0.3 C 4.75 g/m*3 0.3 C 0 km/h
641 10-11-2021 05:20:00 0.3 C 4.75 g/m*3 0.3 C 0 km/h
642 10-11-2021 05:25:00 0.3 C 4.75 g/m*3 0.3 C 1.6 km/h
643 10-11-2021 05:30:00 0.3 C 4.75 g/m*3 0.3 C 1.6 km/h
644 10-11-2021 05:35:00 0.3 C 4.75 g/m*3 0.3 C 0 km/h
645 10-11-2021 05:40:00 0.3 C 4.75 g/m*3 0.3 C 0 km/h
646 10-11-2021 05:45:00 0.2 C 4.72 g/m*3 0.2 C 1.6 km/h
647 10-11-2021 05:50:00 0.2 C 4.72 g/m*3 0.2 C 0 km/h
648 10-11-2021 05:55:00 0.2 C 4.72 g/m*3 0.2 C 0 km/h
649 10-11-2021 06:00:00 0.2 C 4.72 g/m*3 0.2 C 0 km/h
650 10-11-2021 06:05:00 0.2 C 4.72 g/m*3 0.2 C 0 km/h
Sensor: Nr:Datum:Temp:Abs-Feuchte:Windchill:Wind:
Aussen-T/F 651 10-11-2021 06:10:00 0.2 C 4.72 g/m*3 0.2 C 0 km/h
652 10-11-2021 06:15:00 0.2 C 4.72 g/m*3 0.2 C 0 km/h
653 10-11-2021 06:20:00 0.2 C 4.72 g/m*3 0.2 C 0 km/h
654 10-11-2021 06:25:00 0.2 C 4.77 g/m*3 0.2 C 0 km/h
655 10-11-2021 06:30:00 0.2 C 4.72 g/m*3 0.2 C 0 km/h
656 10-11-2021 06:35:00 0.3 C 4.75 g/m*3 0.3 C 0 km/h
657 10-11-2021 06:40:00 0.2 C 4.77 g/m*3 0.2 C 0 km/h
658 10-11-2021 06:45:00 0.3 C 4.8 g/m*3 0.3 C 0 km/h
659 10-11-2021 06:50:00 0.3 C 4.8 g/m*3 0.3 C 1.6 km/h
660 10-11-2021 06:55:00 0.3 C 4.8 g/m*3 0.3 C 0 km/h
661 10-11-2021 07:00:00 0.3 C 4.8 g/m*3 0.3 C 0 km/h
662 10-11-2021 07:05:00 0.3 C 4.8 g/m*3 0.3 C 0 km/h
663 10-11-2021 07:10:00 0.3 C 4.8 g/m*3 0.3 C 0 km/h
664 10-11-2021 07:15:00 0.3 C 4.8 g/m*3 0.3 C 0 km/h
665 10-11-2021 07:20:00 0.3 C 4.8 g/m*3 0.3 C 3.2 km/h
666 10-11-2021 07:25:00 0.4 C 4.83 g/m*3 -1.72 C 6.4 km/h
667 10-11-2021 07:30:00 0.4 C 4.83 g/m*3 0.4 C 3.2 km/h
668 10-11-2021 07:35:00 0.4 C 4.83 g/m*3 0.4 C 1.6 km/h
669 10-11-2021 07:40:00 0.3 C 4.8 g/m*3 0.3 C 0 km/h
670 10-11-2021 07:45:00 0.3 C 4.8 g/m*3 0.3 C 0 km/h
671 10-11-2021 07:50:00 0.3 C 4.8 g/m*3 0.3 C 0 km/h
672 10-11-2021 07:55:00 0.3 C 4.8 g/m*3 0.3 C 0 km/h
673 10-11-2021 08:00:00 0.4 C 4.83 g/m*3 0.4 C 1.6 km/h
674 10-11-2021 08:05:00 0.4 C 4.83 g/m*3 0.4 C 0 km/h
675 10-11-2021 08:10:00 0.4 C 4.83 g/m*3 0.4 C 0 km/h
Sensor: Nr:Datum:Temp:Abs-Feuchte:Windchill:Wind:
Aussen-T/F 676 10-11-2021 08:15:00 0.4 C 4.83 g/m*3 0.4 C 1.6 km/h
677 10-11-2021 08:20:00 0.4 C 4.83 g/m*3 0.4 C 0 km/h
678 10-11-2021 08:25:00 0.5 C 4.86 g/m*3 0.5 C 0 km/h
679 10-11-2021 08:30:00 0.6 C 4.9 g/m*3 0.6 C 3.2 km/h
680 10-11-2021 08:35:00 0.6 C 4.9 g/m*3 0.6 C 3.2 km/h
681 10-11-2021 08:40:00 0.6 C 4.9 g/m*3 0.6 C 1.6 km/h
682 10-11-2021 08:45:00 0.6 C 4.9 g/m*3 0.6 C 3.2 km/h
683 10-11-2021 08:50:00 0.6 C 4.9 g/m*3 0.6 C 3.2 km/h
684 10-11-2021 08:55:00 0.6 C 4.9 g/m*3 0.6 C 4.8 km/h
685 10-11-2021 09:00:00 0.6 C 4.9 g/m*3 0.6 C 1.6 km/h
686 10-11-2021 09:05:00 0.6 C 4.9 g/m*3 0.6 C 1.6 km/h
687 10-11-2021 09:10:00 0.6 C 4.9 g/m*3 0.6 C 0 km/h
688 10-11-2021 09:15:00 0.6 C 4.9 g/m*3 0.6 C 1.6 km/h
689 10-11-2021 09:20:00 0.6 C 4.9 g/m*3 0.6 C 1.6 km/h
690 10-11-2021 09:25:00 0.6 C 4.9 g/m*3 0.6 C 0 km/h
691 10-11-2021 09:30:00 0.6 C 4.9 g/m*3 0.6 C 0 km/h
692 10-11-2021 09:35:00 0.6 C 4.9 g/m*3 0.6 C 0 km/h
693 10-11-2021 09:40:00 0.7 C 4.93 g/m*3 0.7 C 0 km/h
694 10-11-2021 09:45:00 0.7 C 4.93 g/m*3 0.7 C 0 km/h
695 10-11-2021 09:50:00 0.8 C 4.97 g/m*3 0.8 C 0 km/h
696 10-11-2021 09:55:00 0.9 C 5 g/m*3 0.9 C 0 km/h
697 10-11-2021 10:00:00 1 C 5.03 g/m*3 1 C 0 km/h
698 10-11-2021 10:05:00 1.1 C 5.07 g/m*3 1.1 C 1.6 km/h
699 10-11-2021 10:10:00 1.1 C 5.07 g/m*3 1.1 C 0 km/h
700 10-11-2021 10:15:00 1.2 C 5.1 g/m*3 1.2 C 0 km/h
Sensor: Nr:Datum:Temp:Abs-Feuchte:Windchill:Wind:
Aussen-T/F 701 10-11-2021 10:20:00 1.2 C 5.1 g/m*3 1.2 C 0 km/h
702 10-11-2021 10:25:00 1.2 C 5.1 g/m*3 1.2 C 0 km/h
703 10-11-2021 10:30:00 1.2 C 5.1 g/m*3 1.2 C 0 km/h
704 10-11-2021 10:35:00 1.2 C 5.1 g/m*3 1.2 C 0 km/h
705 10-11-2021 10:40:00 1.1 C 5.07 g/m*3 1.1 C 0 km/h
706 10-11-2021 10:45:00 1.2 C 5.1 g/m*3 1.2 C 0 km/h
707 10-11-2021 10:50:00 1.2 C 5.1 g/m*3 1.2 C 0 km/h
708 10-11-2021 10:55:00 1.2 C 5.1 g/m*3 1.2 C 0 km/h
709 10-11-2021 11:00:00 1.2 C 5.1 g/m*3 1.2 C 0 km/h
710 10-11-2021 11:05:00 1.3 C 5.14 g/m*3 1.3 C 0 km/h
711 10-11-2021 11:10:00 1.3 C 5.14 g/m*3 1.3 C 0 km/h
712 10-11-2021 11:15:00 1.4 C 5.17 g/m*3 1.4 C 1.6 km/h
713 10-11-2021 11:20:00 1.5 C 5.21 g/m*3 1.5 C 1.6 km/h
714 10-11-2021 11:25:00 1.6 C 5.25 g/m*3 1.6 C 1.6 km/h
715 10-11-2021 11:30:00 1.7 C 5.28 g/m*3 1.7 C 3.2 km/h
716 10-11-2021 11:35:00 1.8 C 5.32 g/m*3 1.8 C 1.6 km/h
717 10-11-2021 11:40:00 1.9 C 5.35 g/m*3 1.9 C 3.2 km/h
718 10-11-2021 11:45:00 2 C 5.39 g/m*3 2 C 4.8 km/h
719 10-11-2021 11:50:00 2.1 C 5.43 g/m*3 2.1 C 1.6 km/h
720 10-11-2021 11:55:00 2.3 C 5.5 g/m*3 2.3 C 3.2 km/h
721 10-11-2021 12:00:00 2.4 C 5.54 g/m*3 2.4 C 3.2 km/h
722 10-11-2021 12:05:00 2.4 C 5.54 g/m*3 2.4 C 3.2 km/h
723 10-11-2021 12:10:00 2.4 C 5.54 g/m*3 2.4 C 1.6 km/h
724 10-11-2021 12:15:00 2.5 C 5.58 g/m*3 2.5 C 1.6 km/h
725 10-11-2021 12:20:00 2.5 C 5.58 g/m*3 2.5 C 1.6 km/h
Sensor: Nr:Datum:Temp:Abs-Feuchte:Windchill:Wind:
Aussen-T/F 726 10-11-2021 12:25:00 2.4 C 5.54 g/m*3 2.4 C 1.6 km/h
727 10-11-2021 12:30:00 2.5 C 5.58 g/m*3 2.5 C 1.6 km/h
728 10-11-2021 12:35:00 2.6 C 5.61 g/m*3 2.6 C 3.2 km/h
729 10-11-2021 12:40:00 2.8 C 5.69 g/m*3 2.8 C 0 km/h
730 10-11-2021 12:45:00 2.9 C 5.73 g/m*3 2.9 C 0 km/h
731 10-11-2021 12:50:00 3 C 5.77 g/m*3 3 C 0 km/h
732 10-11-2021 12:55:00 3.1 C 5.81 g/m*3 3.1 C 0 km/h
733 10-11-2021 13:00:00 3.1 C 5.81 g/m*3 3.1 C 0 km/h
734 10-11-2021 13:05:00 3.1 C 5.81 g/m*3 3.1 C 0 km/h
735 10-11-2021 13:10:00 3.2 C 5.85 g/m*3 3.2 C 0 km/h
736 10-11-2021 13:15:00 3.3 C 5.88 g/m*3 3.3 C 0 km/h
737 10-11-2021 13:20:00 3.5 C 5.96 g/m*3 3.5 C 0 km/h
738 10-11-2021 13:25:00 3.6 C 6 g/m*3 3.6 C 0 km/h
739 10-11-2021 13:30:00 3.6 C 6 g/m*3 3.6 C 0 km/h
740 10-11-2021 13:35:00 3.6 C 6 g/m*3 3.6 C 0 km/h
741 10-11-2021 13:40:00 3.6 C 6 g/m*3 3.6 C 0 km/h
742 10-11-2021 13:45:00 3.7 C 6.04 g/m*3 3.7 C 0 km/h
743 10-11-2021 13:50:00 3.8 C 6.09 g/m*3 3.8 C 0 km/h
744 10-11-2021 13:55:00 3.9 C 6.13 g/m*3 3.9 C 0 km/h
745 10-11-2021 14:00:00 4 C 6.17 g/m*3 4 C 3.2 km/h
746 10-11-2021 14:05:00 4.1 C 6.21 g/m*3 4.1 C 3.2 km/h
747 10-11-2021 14:10:00 4.3 C 6.29 g/m*3 4.3 C 3.2 km/h
748 10-11-2021 14:15:00 4.3 C 6.36 g/m*3 4.3 C 4.8 km/h
749 10-11-2021 14:20:00 4.4 C 6.33 g/m*3 4.4 C 0 km/h
750 10-11-2021 14:25:00 4.6 C 6.42 g/m*3 4.6 C 0 km/h
Sensor: Nr:Datum:Temp:Abs-Feuchte:Windchill:Wind:
Aussen-T/F 751 10-11-2021 14:30:00 4.7 C 6.46 g/m*3 4.7 C 0 km/h
752 10-11-2021 14:35:00 4.8 C 6.5 g/m*3 4.8 C 0 km/h
753 10-11-2021 14:40:00 4.8 C 6.5 g/m*3 4.8 C 0 km/h
754 10-11-2021 14:45:00 4.9 C 6.55 g/m*3 4.9 C 0 km/h
755 10-11-2021 14:50:00 4.9 C 6.55 g/m*3 4.9 C 0 km/h
756 10-11-2021 14:55:00 4.8 C 6.5 g/m*3 4.8 C 0 km/h
757 10-11-2021 15:00:00 4.8 C 6.5 g/m*3 4.8 C 0 km/h
758 10-11-2021 15:05:00 4.8 C 6.5 g/m*3 4.8 C 0 km/h
759 10-11-2021 15:10:00 4.8 C 6.5 g/m*3 4.8 C 0 km/h
760 10-11-2021 15:15:00 4.8 C 6.5 g/m*3 4.8 C 0 km/h
761 10-11-2021 15:20:00 4.8 C 6.5 g/m*3 4.8 C 0 km/h
762 10-11-2021 15:25:00 4.8 C 6.5 g/m*3 4.8 C 0 km/h
763 10-11-2021 15:30:00 4.8 C 6.5 g/m*3 4.8 C 0 km/h
764 10-11-2021 15:35:00 4.8 C 6.5 g/m*3 4.8 C 0 km/h
765 10-11-2021 15:40:00 4.8 C 6.5 g/m*3 4.8 C 0 km/h
766 10-11-2021 15:45:00 4.8 C 6.5 g/m*3 4.8 C 0 km/h
767 10-11-2021 15:50:00 4.8 C 6.5 g/m*3 4.8 C 0 km/h
768 10-11-2021 15:55:00 4.8 C 6.5 g/m*3 4.8 C 0 km/h
769 10-11-2021 16:00:00 4.8 C 6.5 g/m*3 4.8 C 0 km/h
770 10-11-2021 16:05:00 4.7 C 6.46 g/m*3 4.7 C 0 km/h
771 10-11-2021 16:10:00 4.7 C 6.39 g/m*3 4.7 C 0 km/h
772 10-11-2021 16:15:00 4.7 C 6.39 g/m*3 4.7 C 0 km/h
773 10-11-2021 16:20:00 4.6 C 6.35 g/m*3 4.6 C 0 km/h
774 10-11-2021 16:25:00 4.5 C 6.31 g/m*3 4.5 C 0 km/h
775 10-11-2021 16:30:00 4.3 C 6.23 g/m*3 4.3 C 0 km/h
Sensor: Nr:Datum:Temp:Abs-Feuchte:Windchill:Wind:
Aussen-T/F 776 10-11-2021 16:35:00 4.2 C 6.19 g/m*3 4.2 C 0 km/h
777 10-11-2021 16:40:00 4 C 6.1 g/m*3 4 C 0 km/h
778 10-11-2021 16:45:00 3.9 C 6.06 g/m*3 3.9 C 0 km/h
779 10-11-2021 16:50:00 3.7 C 5.98 g/m*3 3.7 C 0 km/h
780 10-11-2021 16:55:00 3.6 C 5.94 g/m*3 3.6 C 0 km/h
781 10-11-2021 17:00:00 3.4 C 5.86 g/m*3 3.4 C 0 km/h
782 10-11-2021 17:05:00 3.2 C 5.79 g/m*3 3.2 C 0 km/h
783 10-11-2021 17:10:00 3.1 C 5.75 g/m*3 3.1 C 0 km/h
784 10-11-2021 17:15:00 2.9 C 5.67 g/m*3 2.9 C 0 km/h
785 10-11-2021 17:20:00 2.8 C 5.63 g/m*3 2.8 C 0 km/h
786 10-11-2021 17:25:00 2.7 C 5.59 g/m*3 2.7 C 0 km/h
787 10-11-2021 17:30:00 2.6 C 5.56 g/m*3 2.6 C 0 km/h
788 10-11-2021 17:35:00 2.4 C 5.48 g/m*3 2.4 C 0 km/h
789 10-11-2021 17:40:00 2.3 C 5.44 g/m*3 2.3 C 0 km/h
790 10-11-2021 17:45:00 2.2 C 5.41 g/m*3 2.2 C 0 km/h
791 10-11-2021 17:50:00 2.1 C 5.37 g/m*3 2.1 C 0 km/h
792 10-11-2021 17:55:00 2 C 5.33 g/m*3 2 C 0 km/h
793 10-11-2021 18:00:00 1.9 C 5.3 g/m*3 1.9 C 0 km/h
794 10-11-2021 18:05:00 1.9 C 5.3 g/m*3 1.9 C 0 km/h
795 10-11-2021 18:10:00 1.8 C 5.26 g/m*3 1.8 C 0 km/h
796 10-11-2021 18:15:00 1.8 C 5.26 g/m*3 1.8 C 0 km/h
797 10-11-2021 18:20:00 1.8 C 5.26 g/m*3 1.8 C 0 km/h
798 10-11-2021 18:25:00 1.7 C 5.23 g/m*3 1.7 C 0 km/h
799 10-11-2021 18:30:00 1.7 C 5.23 g/m*3 1.7 C 0 km/h
800 10-11-2021 18:35:00 1.7 C 5.23 g/m*3 1.7 C 0 km/h
Sensor: Nr:Datum:Temp:Abs-Feuchte:Windchill:Wind:
Aussen-T/F 801 10-11-2021 18:40:00 1.7 C 5.23 g/m*3 1.7 C 0 km/h
802 10-11-2021 18:45:00 1.7 C 5.23 g/m*3 1.7 C 0 km/h
803 10-11-2021 18:50:00 1.6 C 5.19 g/m*3 1.6 C 0 km/h
804 10-11-2021 18:55:00 1.6 C 5.19 g/m*3 1.6 C 0 km/h
805 10-11-2021 19:00:00 1.6 C 5.19 g/m*3 1.6 C 0 km/h
806 10-11-2021 19:05:00 1.4 C 5.12 g/m*3 1.4 C 0 km/h
807 10-11-2021 19:10:00 1.4 C 5.12 g/m*3 1.4 C 0 km/h
808 10-11-2021 19:15:00 1.3 C 5.09 g/m*3 1.3 C 0 km/h
809 10-11-2021 19:20:00 1.3 C 5.09 g/m*3 1.3 C 0 km/h
810 10-11-2021 19:25:00 1.3 C 5.09 g/m*3 1.3 C 0 km/h
811 10-11-2021 19:30:00 1.2 C 5.05 g/m*3 1.2 C 0 km/h
812 10-11-2021 19:35:00 1.2 C 5.05 g/m*3 1.2 C 0 km/h
813 10-11-2021 19:40:00 1.2 C 5.05 g/m*3 1.2 C 0 km/h
814 10-11-2021 19:45:00 1.2 C 5.05 g/m*3 1.2 C 0 km/h
815 10-11-2021 19:50:00 1.1 C 5.02 g/m*3 1.1 C 0 km/h
816 10-11-2021 19:55:00 1.1 C 5.02 g/m*3 1.1 C 0 km/h
817 10-11-2021 20:00:00 1.1 C 5.02 g/m*3 1.1 C 0 km/h
818 10-11-2021 20:05:00 1 C 4.98 g/m*3 1 C 0 km/h
819 10-11-2021 20:10:00 0.9 C 4.95 g/m*3 0.9 C 0 km/h
820 10-11-2021 20:15:00 0.9 C 4.95 g/m*3 0.9 C 0 km/h
821 10-11-2021 20:20:00 0.9 C 4.95 g/m*3 0.9 C 0 km/h
822 10-11-2021 20:25:00 0.8 C 4.91 g/m*3 0.8 C 0 km/h
823 10-11-2021 20:30:00 0.8 C 4.91 g/m*3 0.8 C 0 km/h
824 10-11-2021 20:35:00 0.7 C 4.88 g/m*3 0.7 C 0 km/h
825 10-11-2021 20:40:00 0.7 C 4.88 g/m*3 0.7 C 0 km/h
Sensor: Nr:Datum:Temp:Abs-Feuchte:Windchill:Wind:
Aussen-T/F 826 10-11-2021 20:45:00 0.7 C 4.88 g/m*3 0.7 C 0 km/h
827 10-11-2021 20:50:00 0.7 C 4.88 g/m*3 0.7 C 0 km/h
828 10-11-2021 20:55:00 0.7 C 4.88 g/m*3 0.7 C 0 km/h
829 10-11-2021 21:00:00 0.7 C 4.88 g/m*3 0.7 C 0 km/h
830 10-11-2021 21:05:00 0.7 C 4.88 g/m*3 0.7 C 0 km/h
831 10-11-2021 21:10:00 0.6 C 4.85 g/m*3 0.6 C 0 km/h
832 10-11-2021 21:15:00 0.6 C 4.85 g/m*3 0.6 C 0 km/h
833 10-11-2021 21:20:00 0.6 C 4.85 g/m*3 0.6 C 0 km/h
834 10-11-2021 21:25:00 0.6 C 4.85 g/m*3 0.6 C 0 km/h
835 10-11-2021 21:30:00 0.6 C 4.85 g/m*3 0.6 C 0 km/h
836 10-11-2021 21:35:00 0.7 C 4.88 g/m*3 0.7 C 0 km/h
837 10-11-2021 21:40:00 0.7 C 4.88 g/m*3 0.7 C 0 km/h
838 10-11-2021 21:45:00 0.8 C 4.91 g/m*3 0.8 C 0 km/h
839 10-11-2021 21:50:00 0.9 C 4.95 g/m*3 0.9 C 0 km/h
840 10-11-2021 21:55:00 0.9 C 5 g/m*3 0.9 C 0 km/h
841 10-11-2021 22:00:00 1 C 5.03 g/m*3 1 C 0 km/h
842 10-11-2021 22:05:00 1 C 5.03 g/m*3 1 C 0 km/h
843 10-11-2021 22:10:00 1.2 C 5.1 g/m*3 1.2 C 0 km/h
844 10-11-2021 22:15:00 1.3 C 5.14 g/m*3 1.3 C 0 km/h
845 10-11-2021 22:20:00 1.3 C 5.14 g/m*3 1.3 C 0 km/h
846 10-11-2021 22:25:00 1.4 C 5.17 g/m*3 1.4 C 0 km/h
847 10-11-2021 22:30:00 1.5 C 5.21 g/m*3 1.5 C 0 km/h
848 10-11-2021 22:35:00 1.6 C 5.25 g/m*3 1.6 C 0 km/h
849 10-11-2021 22:40:00 1.6 C 5.25 g/m*3 1.6 C 0 km/h
850 10-11-2021 22:45:00 1.6 C 5.25 g/m*3 1.6 C 0 km/h
Sensor: Nr:Datum:Temp:Abs-Feuchte:Windchill:Wind:
Aussen-T/F 851 10-11-2021 22:50:00 1.7 C 5.28 g/m*3 1.7 C 0 km/h
852 10-11-2021 22:55:00 1.7 C 5.28 g/m*3 1.7 C 0 km/h
853 10-11-2021 23:00:00 1.7 C 5.28 g/m*3 1.7 C 0 km/h
854 10-11-2021 23:05:00 1.8 C 5.32 g/m*3 1.8 C 3.2 km/h
855 10-11-2021 23:10:00 1.8 C 5.32 g/m*3 1.8 C 0 km/h
856 10-11-2021 23:15:00 1.8 C 5.32 g/m*3 1.8 C 0 km/h
857 10-11-2021 23:20:00 1.8 C 5.32 g/m*3 1.8 C 3.2 km/h
858 10-11-2021 23:25:00 1.8 C 5.32 g/m*3 1.8 C 0 km/h
859 10-11-2021 23:30:00 1.8 C 5.32 g/m*3 1.8 C 0 km/h
860 10-11-2021 23:35:00 1.8 C 5.32 g/m*3 1.8 C 1.6 km/h
861 10-11-2021 23:40:00 1.9 C 5.35 g/m*3 1.9 C 0 km/h
862 10-11-2021 23:45:00 1.8 C 5.32 g/m*3 1.8 C 0 km/h
863 10-11-2021 23:50:00 1.8 C 5.32 g/m*3 1.8 C 0 km/h
864 10-11-2021 23:55:00 1.9 C 5.35 g/m*3 1.9 C 1.6 km/h

Legende:
   Min
   Max


Maximal/Minimal-Werte vom 08.11.2021 - 10.11.2021

Sensor Min Max Avg
Temp
(Aussen-T/F)
0 °C
10-11-2021  02:55:00
10.9 °C
08-11-2021  14:10:00
4.63 °C
Abs-Feuchte
(Aussen-T/F)
4.65 g/m*3
10-11-2021  02:55:00
8.33 g/m*3
08-11-2021  16:05:00
6.35 g/m*3
Windchill
(Aussen-T/F)
-1.72 C
10-11-2021  07:25:00
10.9 C
08-11-2021  14:10:00
4.6 C

Die Daten stammen von einer Davis Vantage Pro 2 Wetter-Station und werden unter Linux mit der Software wview2wettercgi und aufbereitet. Alle Angaben erfolgen ohne Gewähr für ihre Vollständigkeit oder Richtigkeit.
Kontakt: Rainer Krienke krienke@uni-koblenz.de . Meine Webseiten an der Uni Koblenz oder privat.
Version: $Revision: 0.78 $